createdAt,value
2023-03-03T00:00:16.370Z,27.38
2023-03-03T00:03:23.287Z,26.52
2023-03-03T00:06:25.164Z,29.27
2023-03-03T00:09:26.590Z,30.17
2023-03-03T00:12:30.570Z,26.90
2023-03-03T00:15:32.045Z,29.48
2023-03-03T00:18:40.669Z,27.45
2023-03-03T00:21:47.168Z,36.30
2023-03-03T00:24:48.566Z,33.28
2023-03-03T00:27:49.996Z,33.03
2023-03-03T00:30:53.470Z,27.42
2023-03-03T00:36:58.130Z,26.30
2023-03-03T00:40:24.615Z,26.23
2023-03-03T00:43:35.336Z,34.20
2023-03-03T00:46:37.045Z,28.88
2023-03-03T00:49:39.412Z,28.33
2023-03-03T00:52:46.111Z,32.42
2023-03-03T00:55:49.345Z,26.60
2023-03-03T00:58:51.742Z,30.10
2023-03-03T01:01:55.780Z,30.52
2023-03-03T01:04:57.500Z,29.02
2023-03-03T01:07:59.381Z,34.67
2023-03-03T01:11:06.987Z,37.40
2023-03-03T01:14:08.535Z,29.45
2023-03-03T01:17:09.990Z,30.42
2023-03-03T01:20:13.571Z,43.97
2023-03-03T01:23:15.196Z,34.00
2023-03-03T01:26:16.737Z,31.75
2023-03-03T01:29:18.169Z,32.22
2023-03-03T01:32:19.748Z,25.42
2023-03-03T01:35:21.420Z,31.27
2023-03-03T01:38:22.863Z,32.45
2023-03-03T01:41:27.937Z,28.98
2023-03-03T01:44:29.361Z,33.08
2023-03-03T01:47:33.679Z,32.28
2023-03-03T01:50:50.341Z,27.55
2023-03-03T01:54:05.145Z,26.27
2023-03-03T01:57:12.381Z,30.35
2023-03-03T02:00:14.884Z,32.15
2023-03-03T02:03:16.923Z,31.23
2023-03-03T02:06:22.292Z,23.10
2023-03-03T02:09:41.296Z,23.52
2023-03-03T02:12:58.259Z,26.33
2023-03-03T02:16:00.099Z,27.90
2023-03-03T02:19:06.590Z,34.10
2023-03-03T02:22:08.107Z,26.27
2023-03-03T02:25:18.381Z,26.02
2023-03-03T02:28:20.481Z,24.25
2023-03-03T02:31:27.239Z,32.42
2023-03-03T02:34:29.201Z,37.13
2023-03-03T02:37:30.659Z,27.17
2023-03-03T02:40:37.442Z,33.92
2023-03-03T02:43:51.355Z,44.88
2023-03-03T02:46:54.383Z,33.57
2023-03-03T02:49:55.833Z,31.38
2023-03-03T02:52:57.255Z,30.33
2023-03-03T02:55:58.810Z,29.23
2023-03-03T02:59:00.982Z,32.92
2023-03-03T03:02:05.565Z,34.38
2023-03-03T03:05:07.392Z,28.50
2023-03-03T03:08:09.197Z,38.00
2023-03-03T03:11:10.652Z,31.10
2023-03-03T03:14:14.401Z,37.13
2023-03-03T03:17:17.590Z,26.98
2023-03-03T03:20:20.593Z,28.80
2023-03-03T03:23:22.519Z,42.78
2023-03-03T03:26:24.771Z,34.65
2023-03-03T03:29:27.238Z,24.60
2023-03-03T03:32:28.821Z,26.23
2023-03-03T03:35:32.800Z,27.70
2023-03-03T03:38:35.434Z,23.67
2023-03-03T03:41:37.897Z,36.85
2023-03-03T03:44:39.414Z,25.73
2023-03-03T03:47:42.026Z,27.45
2023-03-03T03:50:43.549Z,32.33
2023-03-03T03:53:45.063Z,23.73
2023-03-03T03:56:46.581Z,31.25
2023-03-03T03:59:49.896Z,26.45
2023-03-03T04:05:53.967Z,30.67
2023-03-03T04:08:56.039Z,27.13
2023-03-03T04:11:58.283Z,23.50
2023-03-03T04:15:00.114Z,29.48
2023-03-03T04:18:02.062Z,22.30
2023-03-03T04:21:05.342Z,22.33
2023-03-03T04:24:08.105Z,21.30
2023-03-03T04:27:09.593Z,20.23
2023-03-03T04:30:14.056Z,27.95
2023-03-03T04:33:15.499Z,21.73
2023-03-03T04:36:17.470Z,25.95
2023-03-03T04:39:19.094Z,31.42
2023-03-03T04:42:20.629Z,21.73
2023-03-03T04:45:22.441Z,21.90
2023-03-03T04:48:23.883Z,21.30
2023-03-03T04:51:25.428Z,25.58
2023-03-03T04:54:26.856Z,26.23
2023-03-03T04:57:28.427Z,25.25
2023-03-03T05:00:30.094Z,21.58
2023-03-03T05:03:31.945Z,24.92
2023-03-03T05:06:34.511Z,21.50
2023-03-03T05:09:36.403Z,20.88
2023-03-03T05:12:38.156Z,21.33
2023-03-03T05:15:42.197Z,25.27
2023-03-03T05:18:44.552Z,18.95
2023-03-03T05:21:45.946Z,23.52
2023-03-03T05:24:47.342Z,19.60
2023-03-03T05:27:48.784Z,17.98
2023-03-03T05:30:50.560Z,17.90
2023-03-03T05:33:51.962Z,19.17
2023-03-03T05:36:53.368Z,17.42
2023-03-03T05:39:54.793Z,18.77
2023-03-03T05:42:56.274Z,19.42
2023-03-03T05:45:58.197Z,22.85
2023-03-03T05:48:59.704Z,21.55
2023-03-03T05:52:01.246Z,18.20
2023-03-03T05:55:02.678Z,17.65
2023-03-03T05:58:04.049Z,19.05
2023-03-03T06:01:05.652Z,18.95
2023-03-03T06:04:07.091Z,18.40
2023-03-03T06:07:08.482Z,16.77
2023-03-03T06:10:10.421Z,18.52
2023-03-03T06:13:14.487Z,17.42
2023-03-03T06:16:15.931Z,15.50
2023-03-03T06:19:17.458Z,16.52
2023-03-03T06:22:19.840Z,20.95
2023-03-03T06:25:21.285Z,16.92
2023-03-03T06:28:22.734Z,16.17
2023-03-03T06:31:24.243Z,21.77
2023-03-03T06:34:25.723Z,19.58
2023-03-03T06:37:27.145Z,20.33
2023-03-03T06:40:28.561Z,18.70
2023-03-03T06:43:29.943Z,25.70
2023-03-03T06:46:31.397Z,17.73
2023-03-03T06:49:32.954Z,19.77
2023-03-03T06:52:34.479Z,21.65
2023-03-03T06:55:35.861Z,19.38
2023-03-03T06:58:37.332Z,17.00
2023-03-03T07:01:38.827Z,14.77
2023-03-03T07:04:40.250Z,15.55
2023-03-03T07:07:42.213Z,15.45
2023-03-03T07:10:45.191Z,15.77
2023-03-03T07:13:49.733Z,16.27
2023-03-03T07:16:56.318Z,17.15
2023-03-03T07:19:57.744Z,17.98
2023-03-03T07:22:59.228Z,17.50
2023-03-03T07:26:00.673Z,16.52
2023-03-03T07:29:26.224Z,16.80
2023-03-03T07:32:41.997Z,16.20
2023-03-03T07:35:44.688Z,23.25
2023-03-03T07:38:58.390Z,18.25
2023-03-03T07:42:14.355Z,17.70
2023-03-03T07:45:29.270Z,18.23
2023-03-03T07:48:36.106Z,16.02
2023-03-03T07:51:39.947Z,17.08
2023-03-03T07:54:45.292Z,15.75
2023-03-03T07:57:46.684Z,17.08
2023-03-03T08:01:25.597Z,16.30
2023-03-03T08:04:44.248Z,15.45
2023-03-03T08:07:45.663Z,17.40
2023-03-03T08:10:55.379Z,19.58
2023-03-03T08:13:56.790Z,17.42
2023-03-03T08:17:00.604Z,16.58
2023-03-03T08:20:29.091Z,15.48
2023-03-03T08:23:30.447Z,15.45
2023-03-03T08:26:32.208Z,17.00
2023-03-03T08:29:33.575Z,14.15
2023-03-03T08:32:35.063Z,15.15
2023-03-03T08:35:36.727Z,14.98
2023-03-03T08:38:38.916Z,13.57
2023-03-03T08:41:40.845Z,13.55
2023-03-03T08:44:42.242Z,14.68
2023-03-03T08:47:43.622Z,13.98
2023-03-03T08:50:45.316Z,13.00
2023-03-03T08:53:46.732Z,13.85
2023-03-03T08:56:48.117Z,12.25
2023-03-03T08:59:49.462Z,13.30
2023-03-03T09:02:51.412Z,13.57
2023-03-03T09:05:52.771Z,13.52
2023-03-03T09:08:54.390Z,13.35
2023-03-03T09:12:05.105Z,12.75
2023-03-03T09:15:20.254Z,13.15
2023-03-03T09:18:29.230Z,12.95
2023-03-03T09:21:31.458Z,13.00
2023-03-03T09:24:36.204Z,12.45
2023-03-03T09:27:37.628Z,13.93
2023-03-03T09:30:41.152Z,12.93
2023-03-03T09:33:44.617Z,12.27
2023-03-03T09:36:46.149Z,12.13
2023-03-03T09:39:50.954Z,10.23
2023-03-03T09:43:04.637Z,11.32
2023-03-03T09:46:24.546Z,12.10
2023-03-03T09:49:35.058Z,10.82
2023-03-03T09:52:51.434Z,12.18
2023-03-03T09:56:16.941Z,12.10
2023-03-03T09:59:47.404Z,14.10
2023-03-03T10:03:11.312Z,13.95
2023-03-03T10:06:25.546Z,15.13
2023-03-03T10:09:35.068Z,17.27
2023-03-03T10:13:03.464Z,15.98
2023-03-03T10:16:35.556Z,16.77
2023-03-03T10:19:45.725Z,16.60
2023-03-03T10:22:59.411Z,18.58
2023-03-03T10:26:44.742Z,18.65
2023-03-03T10:30:38.910Z,17.63
2023-03-03T10:33:54.289Z,15.98
2023-03-03T10:37:10.132Z,15.77
2023-03-03T10:40:25.018Z,16.10
2023-03-03T10:43:57.944Z,13.00
2023-03-03T10:47:14.271Z,11.55
2023-03-03T10:50:50.321Z,11.10
2023-03-03T10:54:21.006Z,11.65
2023-03-03T10:57:34.819Z,9.30
2023-03-03T11:00:58.439Z,8.65
2023-03-03T11:04:40.148Z,6.30
2023-03-03T11:07:53.805Z,6.75
2023-03-03T11:14:31.715Z,6.30
2023-03-03T11:17:49.048Z,5.43
2023-03-03T11:21:09.387Z,8.00
2023-03-03T11:24:25.113Z,5.97
2023-03-03T11:27:26.674Z,5.75
2023-03-03T11:30:53.211Z,5.35
2023-03-03T11:34:19.072Z,4.72
2023-03-03T11:37:26.191Z,4.75
2023-03-03T11:40:33.548Z,4.10
2023-03-03T11:43:47.201Z,3.25
2023-03-03T11:50:11.308Z,3.22
2023-03-03T11:53:29.145Z,3.88
2023-03-03T11:56:43.034Z,3.00
2023-03-03T11:59:57.718Z,2.63
2023-03-03T12:03:08.523Z,2.78
2023-03-03T12:06:24.874Z,2.85
2023-03-03T12:09:47.384Z,3.13
2023-03-03T12:13:05.136Z,2.90
2023-03-03T12:16:20.694Z,2.67
2023-03-03T12:19:27.967Z,2.92
2023-03-03T12:22:41.708Z,3.05
2023-03-03T12:26:07.837Z,2.40
2023-03-03T12:29:36.255Z,1.73
2023-03-03T12:33:13.071Z,1.80
2023-03-03T12:36:29.690Z,1.30
2023-03-03T12:39:57.789Z,1.50
2023-03-03T12:42:59.118Z,0.98
2023-03-03T12:46:10.782Z,1.70
2023-03-03T12:49:12.672Z,3.97
2023-03-03T12:52:31.016Z,1.90
2023-03-03T12:55:41.381Z,2.40
2023-03-03T12:59:00.708Z,1.40
2023-03-03T13:02:36.393Z,1.35
2023-03-03T13:05:55.330Z,1.35
2023-03-03T13:09:19.663Z,1.33
2023-03-03T13:12:23.769Z,3.50
2023-03-03T13:15:32.506Z,1.88
2023-03-03T13:18:46.487Z,1.30
2023-03-03T13:21:57.941Z,1.80
2023-03-03T13:25:41.514Z,1.52
2023-03-03T13:28:54.086Z,1.38
2023-03-03T13:31:59.489Z,1.17
2023-03-03T13:35:08.718Z,1.10
2023-03-03T13:38:14.308Z,1.25
2023-03-03T13:41:33.056Z,1.52
2023-03-03T13:44:40.696Z,0.88
2023-03-03T13:47:52.763Z,1.73
2023-03-03T13:50:58.357Z,1.20
2023-03-03T13:54:02.519Z,1.02
2023-03-03T13:57:38.265Z,0.80
2023-03-03T14:01:09.630Z,0.95
2023-03-03T14:04:29.042Z,0.98
2023-03-03T14:07:51.901Z,1.02
2023-03-03T14:11:10.758Z,1.05
2023-03-03T14:14:42.030Z,1.20
2023-03-03T14:18:00.825Z,1.17
2023-03-03T14:21:20.588Z,1.05
2023-03-03T14:24:23.540Z,1.08
2023-03-03T14:27:27.612Z,0.90
2023-03-03T14:30:33.911Z,1.30
2023-03-03T14:33:35.296Z,11.27
2023-03-03T14:36:40.008Z,1.60
2023-03-03T14:39:48.863Z,2.53
2023-03-03T14:42:53.199Z,3.38
2023-03-03T14:45:54.756Z,2.10
2023-03-03T14:49:02.137Z,2.10
2023-03-03T14:52:15.589Z,1.30
2023-03-03T14:55:38.503Z,1.55
2023-03-03T14:58:43.554Z,1.83
2023-03-03T15:01:46.001Z,1.17
2023-03-03T15:04:48.421Z,2.27
2023-03-03T15:07:58.650Z,6.97
2023-03-03T15:11:33.002Z,2.53
2023-03-03T15:14:43.350Z,1.63
2023-03-03T15:17:56.895Z,1.90
2023-03-03T15:24:21.638Z,4.78
2023-03-03T15:27:38.250Z,1.42
2023-03-03T15:30:50.915Z,7.18
2023-03-03T15:34:08.016Z,2.00
2023-03-03T15:37:30.836Z,3.45
2023-03-03T15:40:44.515Z,1.80
2023-03-03T15:44:14.610Z,2.65
2023-03-03T15:47:42.330Z,2.42
2023-03-03T15:50:52.276Z,2.50
2023-03-03T15:54:02.866Z,1.85
2023-03-03T15:57:52.043Z,1.88
2023-03-03T16:01:20.379Z,2.50
2023-03-03T16:04:28.351Z,2.60
2023-03-03T16:07:40.967Z,1.80
2023-03-03T16:10:45.306Z,2.20
2023-03-03T16:14:33.910Z,1.80
2023-03-03T16:17:52.659Z,2.20
2023-03-03T16:21:15.468Z,2.75
2023-03-03T16:25:03.504Z,3.53
2023-03-03T16:28:41.354Z,2.92
2023-03-03T16:31:53.129Z,2.92
2023-03-03T16:35:13.455Z,3.90
2023-03-03T16:38:21.132Z,3.05
2023-03-03T16:42:00.394Z,2.80
2023-03-03T16:45:22.287Z,3.85
2023-03-03T16:48:29.966Z,2.47
2023-03-03T16:51:46.548Z,2.85
2023-03-03T16:55:15.172Z,3.75
2023-03-03T16:58:32.599Z,3.47
2023-03-03T17:02:06.933Z,4.70
2023-03-03T17:05:29.658Z,10.73
2023-03-03T17:08:37.173Z,9.45
2023-03-03T17:11:48.051Z,15.10
2023-03-03T17:15:03.210Z,10.65
2023-03-03T17:18:12.999Z,3.55
2023-03-03T17:21:23.809Z,6.90
2023-03-03T17:24:55.869Z,7.20
2023-03-03T17:28:24.390Z,6.53
2023-03-03T17:31:48.031Z,7.93
2023-03-03T17:35:28.638Z,18.45
2023-03-03T17:38:45.637Z,18.48
2023-03-03T17:42:20.804Z,14.23
2023-03-03T17:45:25.437Z,4.40
2023-03-03T17:48:48.192Z,5.25
2023-03-03T17:52:32.895Z,6.63
2023-03-03T17:55:55.381Z,4.95
2023-03-03T17:59:12.596Z,5.35
2023-03-03T18:02:37.577Z,3.95
2023-03-03T18:05:48.342Z,2.92
2023-03-03T18:08:57.471Z,6.20
2023-03-03T18:12:19.102Z,6.53
2023-03-03T18:15:40.799Z,6.43
2023-03-03T18:19:19.592Z,4.82
2023-03-03T18:22:47.642Z,4.07
2023-03-03T18:25:56.066Z,3.78
2023-03-03T18:29:17.661Z,4.53
2023-03-03T18:32:23.479Z,4.95
2023-03-03T18:35:31.191Z,5.40
2023-03-03T18:38:37.547Z,4.32
2023-03-03T18:42:10.447Z,3.83
2023-03-03T18:45:20.555Z,3.85
2023-03-03T18:48:53.795Z,5.80
2023-03-03T18:52:44.104Z,4.73
2023-03-03T18:55:48.420Z,3.95
2023-03-03T18:58:51.174Z,4.53
2023-03-03T19:01:52.679Z,5.82
2023-03-03T19:04:55.897Z,5.22
2023-03-03T19:08:18.968Z,3.53
2023-03-03T19:11:50.814Z,4.53
2023-03-03T19:14:52.227Z,3.90
2023-03-03T19:17:58.375Z,5.05
2023-03-03T19:21:04.771Z,4.32
2023-03-03T19:24:26.149Z,4.50
2023-03-03T19:27:43.721Z,7.00
2023-03-03T19:30:55.874Z,6.30
2023-03-03T19:34:17.330Z,6.53
2023-03-03T19:37:30.898Z,7.43
2023-03-03T19:43:51.533Z,5.20
2023-03-03T19:47:03.512Z,6.15
2023-03-03T19:50:34.917Z,4.38
2023-03-03T19:54:07.398Z,5.35
2023-03-03T19:57:18.417Z,4.60
2023-03-03T20:00:34.287Z,4.70
2023-03-03T20:03:51.939Z,3.97
2023-03-03T20:07:09.414Z,4.22
2023-03-03T20:10:23.175Z,4.65
2023-03-03T20:13:37.549Z,11.75
2023-03-03T20:16:41.022Z,11.52
2023-03-03T20:19:51.939Z,9.00
2023-03-03T20:23:17.458Z,8.20
2023-03-03T20:26:28.492Z,5.88
2023-03-03T20:29:45.225Z,4.60
2023-03-03T20:33:07.689Z,3.50
2023-03-03T20:36:27.323Z,4.88
2023-03-03T20:40:07.904Z,4.70
2023-03-03T20:43:32.421Z,7.28
2023-03-03T20:46:44.940Z,5.95
2023-03-03T20:49:58.603Z,6.03
2023-03-03T20:53:18.123Z,5.55
2023-03-03T20:56:29.456Z,4.57
2023-03-03T20:59:40.577Z,5.72
2023-03-03T21:02:52.328Z,4.70
2023-03-03T21:06:15.166Z,5.07
2023-03-03T21:09:30.049Z,3.95
2023-03-03T21:12:31.817Z,3.83
2023-03-03T21:15:34.231Z,4.25
2023-03-03T21:18:35.718Z,3.50
2023-03-03T21:21:38.562Z,4.03
2023-03-03T21:24:57.053Z,4.53
2023-03-03T21:28:27.836Z,4.18
2023-03-03T21:31:44.005Z,4.15
2023-03-03T21:34:45.597Z,6.95
2023-03-03T21:37:50.151Z,14.98
2023-03-03T21:41:02.907Z,11.32
2023-03-03T21:44:30.170Z,4.80
2023-03-03T21:47:31.529Z,4.95
2023-03-03T21:50:32.977Z,4.10
2023-03-03T21:53:34.387Z,3.72
2023-03-03T21:56:35.760Z,4.20
2023-03-03T21:59:37.340Z,4.25
2023-03-03T22:02:38.791Z,3.90
2023-03-03T22:05:40.135Z,4.32
2023-03-03T22:08:41.512Z,3.50
2023-03-03T22:11:42.883Z,3.58
2023-03-03T22:14:44.277Z,3.22
2023-03-03T22:17:45.660Z,3.78
2023-03-03T22:20:48.369Z,3.08
2023-03-03T22:23:49.752Z,2.67
2023-03-03T22:26:51.165Z,2.80
2023-03-03T22:29:52.575Z,3.53
2023-03-03T22:32:53.996Z,3.60
2023-03-03T22:35:55.678Z,3.00
2023-03-03T22:38:57.091Z,2.78
2023-03-03T22:41:58.471Z,2.75
2023-03-03T22:44:59.855Z,3.15
2023-03-03T22:48:01.217Z,3.22
2023-03-03T22:51:02.650Z,3.38
2023-03-03T22:54:04.220Z,5.78
2023-03-03T22:57:05.641Z,7.65
2023-03-03T23:00:10.068Z,9.60
2023-03-03T23:03:11.859Z,7.70
2023-03-03T23:06:13.474Z,15.45
2023-03-03T23:09:14.853Z,13.25
2023-03-03T23:12:16.379Z,7.28
2023-03-03T23:15:17.863Z,8.75
2023-03-03T23:18:19.254Z,13.90
2023-03-03T23:21:20.658Z,3.10
2023-03-03T23:24:22.063Z,5.45
2023-03-03T23:27:23.481Z,4.20
2023-03-03T23:30:25.085Z,3.25
2023-03-03T23:33:26.497Z,4.03
2023-03-03T23:36:27.869Z,5.10
2023-03-03T23:39:29.326Z,3.45
2023-03-03T23:42:30.744Z,2.42
2023-03-03T23:45:32.164Z,1.88
2023-03-03T23:48:33.525Z,4.28
2023-03-03T23:51:34.937Z,3.13
2023-03-03T23:54:36.354Z,2.85
2023-03-03T23:57:37.769Z,2.83
